createdAt,value
2017-06-18T00:00:55.147Z,13.27
2017-06-18T00:03:21.975Z,13.07
2017-06-18T00:05:48.737Z,13.03
2017-06-18T00:08:15.597Z,13.20
2017-06-18T00:10:42.349Z,12.60
2017-06-18T00:13:09.068Z,13.20
2017-06-18T00:15:35.800Z,13.50
2017-06-18T00:18:02.573Z,13.67
2017-06-18T00:20:29.294Z,12.57
2017-06-18T00:22:56.020Z,14.00
2017-06-18T00:25:22.745Z,14.10
2017-06-18T00:27:49.469Z,14.17
2017-06-18T00:30:16.234Z,14.27
2017-06-18T00:32:42.985Z,14.37
2017-06-18T00:35:09.869Z,13.83
2017-06-18T00:37:36.598Z,13.63
2017-06-18T00:40:03.470Z,13.57
2017-06-18T00:42:30.216Z,13.60
2017-06-18T00:44:56.941Z,12.83
2017-06-18T00:47:23.731Z,14.03
2017-06-18T00:49:50.432Z,14.17
2017-06-18T00:52:17.161Z,13.87
2017-06-18T00:54:43.988Z,15.30
2017-06-18T00:57:10.704Z,13.03
2017-06-18T00:59:37.454Z,13.67
2017-06-18T01:02:04.211Z,13.33
2017-06-18T01:04:31.049Z,15.07
2017-06-18T01:06:57.800Z,12.93
2017-06-18T01:09:24.552Z,14.93
2017-06-18T01:11:51.363Z,12.80
2017-06-18T01:14:18.089Z,14.93
2017-06-18T01:16:44.824Z,13.70
2017-06-18T01:19:11.553Z,14.63
2017-06-18T01:21:38.278Z,14.30
2017-06-18T01:24:05.020Z,13.00
2017-06-18T01:26:31.781Z,14.63
2017-06-18T01:28:58.486Z,14.07
2017-06-18T01:31:25.222Z,14.33
2017-06-18T01:33:52.055Z,14.10
2017-06-18T01:36:18.806Z,14.03
2017-06-18T01:38:45.577Z,14.20
2017-06-18T01:41:12.466Z,15.13
2017-06-18T01:43:39.323Z,14.77
2017-06-18T01:46:06.206Z,14.27
2017-06-18T01:48:32.940Z,12.87
2017-06-18T01:50:59.691Z,15.20
2017-06-18T01:53:26.430Z,13.87
2017-06-18T01:55:53.176Z,13.80
2017-06-18T01:58:19.917Z,14.10
2017-06-18T02:00:46.657Z,14.93
2017-06-18T02:03:13.458Z,14.57
2017-06-18T02:05:40.278Z,13.80
2017-06-18T02:08:07.045Z,14.83
2017-06-18T02:10:33.817Z,14.53
2017-06-18T02:13:00.566Z,14.63
2017-06-18T02:15:27.317Z,15.30
2017-06-18T02:17:54.110Z,14.10
2017-06-18T02:20:20.832Z,14.40
2017-06-18T02:22:47.532Z,14.30
2017-06-18T02:25:14.271Z,13.77
2017-06-18T02:27:40.985Z,15.80
2017-06-18T02:30:07.733Z,13.00
2017-06-18T02:32:34.457Z,13.60
2017-06-18T02:35:01.225Z,12.83
2017-06-18T02:37:27.950Z,11.97
2017-06-18T02:39:54.665Z,11.90
2017-06-18T02:42:21.385Z,11.03
2017-06-18T02:44:48.114Z,12.80
2017-06-18T02:47:14.889Z,11.27
2017-06-18T02:49:41.595Z,11.83
2017-06-18T02:52:08.366Z,12.13
2017-06-18T02:54:35.105Z,10.87
2017-06-18T02:57:01.821Z,11.43
2017-06-18T02:59:28.565Z,11.67
2017-06-18T03:01:55.293Z,12.80
2017-06-18T03:04:22.045Z,12.27
2017-06-18T03:06:48.868Z,12.60
2017-06-18T03:09:15.674Z,12.57
2017-06-18T03:11:42.406Z,11.70
2017-06-18T03:14:09.197Z,12.07
2017-06-18T03:16:35.973Z,11.90
2017-06-18T03:19:02.678Z,12.73
2017-06-18T03:21:50.355Z,12.90
2017-06-18T03:24:34.632Z,11.73
2017-06-18T03:27:04.361Z,12.70
2017-06-18T03:29:34.140Z,10.70
2017-06-18T03:32:03.995Z,11.50
2017-06-18T03:34:33.695Z,12.07
2017-06-18T03:37:04.518Z,10.60
2017-06-18T03:39:35.221Z,10.00
2017-06-18T03:42:04.941Z,10.10
2017-06-18T03:44:34.652Z,11.50
2017-06-18T03:47:04.383Z,11.43
2017-06-18T03:49:34.118Z,11.50
2017-06-18T03:52:03.812Z,10.87
2017-06-18T03:54:33.553Z,11.90
2017-06-18T03:57:03.240Z,11.87
2017-06-18T03:59:33.021Z,12.27
2017-06-18T04:02:03.477Z,11.50
2017-06-18T04:04:33.215Z,10.40
2017-06-18T04:07:02.924Z,11.83
2017-06-18T04:09:32.730Z,11.57
2017-06-18T04:12:02.465Z,13.43
2017-06-18T04:14:32.195Z,12.53
2017-06-18T04:17:02.806Z,13.10
2017-06-18T04:19:32.515Z,13.13
2017-06-18T04:22:02.262Z,12.63
2017-06-18T04:24:31.995Z,13.20
2017-06-18T04:27:01.738Z,12.40
2017-06-18T04:29:31.501Z,12.80
2017-06-18T04:32:01.193Z,13.83
2017-06-18T04:34:31.810Z,12.70
2017-06-18T04:37:01.520Z,13.40
2017-06-18T04:39:32.154Z,12.60
2017-06-18T04:42:01.885Z,13.30
2017-06-18T04:44:31.583Z,12.40
2017-06-18T04:47:01.336Z,12.97
2017-06-18T04:49:31.111Z,13.00
2017-06-18T04:52:01.763Z,13.23
2017-06-18T04:54:31.500Z,12.40
2017-06-18T04:57:01.253Z,12.13
2017-06-18T04:59:31.857Z,13.33
2017-06-18T05:02:01.591Z,12.30
2017-06-18T05:04:31.329Z,13.37
2017-06-18T05:07:01.049Z,14.33
2017-06-18T05:09:30.784Z,13.27
2017-06-18T05:12:01.857Z,12.47
2017-06-18T05:14:32.187Z,12.07
2017-06-18T05:17:02.377Z,13.23
2017-06-18T05:19:32.216Z,13.80
2017-06-18T05:22:01.965Z,12.83
2017-06-18T05:24:31.666Z,12.70
2017-06-18T05:27:01.393Z,13.27
2017-06-18T05:29:31.123Z,14.47
2017-06-18T05:32:00.867Z,13.63
2017-06-18T05:34:30.557Z,14.40
2017-06-18T05:37:00.240Z,13.50
2017-06-18T05:39:30.871Z,14.70
2017-06-18T05:42:00.614Z,14.10
2017-06-18T05:44:31.193Z,16.37
2017-06-18T05:47:00.939Z,15.20
2017-06-18T05:49:30.665Z,13.73
2017-06-18T05:52:00.400Z,17.17
2017-06-18T05:54:30.167Z,15.67
2017-06-18T05:56:59.937Z,15.43
2017-06-18T05:59:29.713Z,15.33
2017-06-18T06:01:59.416Z,14.80
2017-06-18T06:04:29.170Z,16.10
2017-06-18T06:06:58.882Z,15.20
2017-06-18T06:09:28.610Z,14.37
2017-06-18T06:11:58.346Z,13.33
2017-06-18T06:14:32.125Z,13.60
2017-06-18T06:17:01.893Z,12.97
2017-06-18T06:19:32.526Z,12.43
2017-06-18T06:22:02.281Z,11.03
2017-06-18T06:24:32.041Z,11.03
2017-06-18T06:27:02.113Z,11.47
2017-06-18T06:29:31.843Z,9.80
2017-06-18T06:32:01.553Z,11.43
2017-06-18T06:34:31.297Z,10.50
2017-06-18T06:37:01.037Z,12.13
2017-06-18T06:39:30.789Z,9.77
2017-06-18T06:42:00.504Z,8.97
2017-06-18T06:44:30.223Z,8.37
2017-06-18T06:46:59.938Z,9.07
2017-06-18T06:49:29.625Z,10.77
2017-06-18T06:51:59.343Z,11.37
2017-06-18T06:54:29.044Z,10.10
2017-06-18T06:56:58.793Z,9.70
2017-06-18T06:59:28.893Z,8.70
2017-06-18T07:01:58.658Z,9.20
2017-06-18T07:04:28.381Z,9.33
2017-06-18T07:06:58.117Z,8.70
2017-06-18T07:09:27.930Z,7.80
2017-06-18T07:11:58.455Z,7.20
2017-06-18T07:14:28.216Z,6.97
2017-06-18T07:16:57.908Z,6.30
2017-06-18T07:19:27.668Z,6.57
2017-06-18T07:21:57.366Z,8.33
2017-06-18T07:24:27.103Z,9.47
2017-06-18T07:26:56.865Z,7.90
2017-06-18T07:29:26.571Z,7.60
2017-06-18T07:31:56.495Z,6.10
2017-06-18T07:34:26.281Z,6.00
2017-06-18T07:36:56.068Z,5.70
2017-06-18T07:39:25.840Z,5.07
2017-06-18T07:41:55.574Z,6.57
2017-06-18T07:44:25.384Z,6.67
2017-06-18T07:46:55.155Z,6.50
2017-06-18T07:49:24.909Z,5.30
2017-06-18T07:51:54.673Z,4.40
2017-06-18T07:54:24.411Z,4.73
2017-06-18T07:56:54.141Z,4.87
2017-06-18T07:59:23.838Z,5.70
2017-06-18T08:01:53.564Z,5.60
2017-06-18T08:04:23.299Z,4.63
2017-06-18T08:06:53.034Z,5.73
2017-06-18T08:09:22.727Z,5.40
2017-06-18T08:11:52.496Z,3.93
2017-06-18T08:14:22.253Z,5.33
2017-06-18T08:16:51.999Z,5.00
2017-06-18T08:19:21.738Z,5.10
2017-06-18T08:21:51.447Z,5.00
2017-06-18T08:24:21.221Z,4.20
2017-06-18T08:26:50.946Z,4.83
2017-06-18T08:29:20.729Z,4.00
2017-06-18T08:31:50.465Z,4.83
2017-06-18T08:34:20.188Z,5.93
2017-06-18T08:36:49.942Z,4.50
2017-06-18T08:39:19.473Z,4.50
2017-06-18T08:41:49.206Z,3.73
2017-06-18T08:44:18.918Z,4.00
2017-06-18T08:46:48.678Z,4.00
2017-06-18T08:49:18.408Z,4.10
2017-06-18T08:51:47.951Z,4.37
2017-06-18T08:54:17.697Z,4.17
2017-06-18T08:56:47.421Z,5.20
2017-06-18T08:59:17.233Z,5.10
2017-06-18T09:01:46.962Z,5.60
2017-06-18T09:04:16.766Z,4.73
2017-06-18T09:06:55.047Z,4.63
2017-06-18T09:09:24.984Z,4.93
2017-06-18T09:11:55.616Z,5.10
2017-06-18T09:14:25.363Z,4.17
2017-06-18T09:16:55.193Z,4.00
2017-06-18T09:19:24.914Z,3.57
2017-06-18T09:21:54.720Z,3.90
2017-06-18T09:24:24.452Z,3.87
2017-06-18T09:26:54.226Z,3.87
2017-06-18T09:29:23.998Z,3.30
2017-06-18T09:31:53.724Z,3.40
2017-06-18T09:34:23.526Z,4.10
2017-06-18T09:36:53.252Z,3.80
2017-06-18T09:39:22.805Z,3.90
2017-06-18T09:41:52.605Z,3.60
2017-06-18T09:44:22.347Z,4.07
2017-06-18T09:46:52.128Z,3.67
2017-06-18T09:49:21.876Z,3.80
2017-06-18T09:51:51.680Z,3.50
2017-06-18T09:54:21.416Z,2.90
2017-06-18T09:56:51.172Z,2.63
2017-06-18T09:59:20.917Z,3.20
2017-06-18T10:01:50.650Z,3.47
2017-06-18T10:04:20.393Z,2.70
2017-06-18T10:06:50.127Z,3.70
2017-06-18T10:09:19.902Z,3.07
2017-06-18T10:11:50.475Z,2.87
2017-06-18T10:14:20.267Z,2.60
2017-06-18T10:16:49.987Z,2.90
2017-06-18T10:19:19.729Z,2.50
2017-06-18T10:22:06.977Z,1.90
2017-06-18T10:35:09.239Z,3.20
2017-06-18T10:37:38.973Z,2.90
2017-06-18T10:40:08.706Z,2.80
2017-06-18T10:42:38.422Z,2.83
2017-06-18T10:45:08.167Z,2.33
2017-06-18T10:47:37.865Z,2.93
2017-06-18T10:50:07.594Z,3.00
2017-06-18T10:52:37.288Z,3.20
2017-06-18T10:55:07.005Z,2.90
2017-06-18T10:57:36.944Z,3.07
2017-06-18T11:00:06.658Z,2.90
2017-06-18T11:02:37.235Z,3.70
2017-06-18T11:05:06.933Z,71.50
2017-06-18T11:07:36.682Z,8.67
2017-06-18T11:10:06.385Z,2.77
2017-06-18T11:12:36.149Z,2.87
2017-06-18T11:15:06.299Z,3.17
2017-06-18T11:17:39.511Z,3.60
2017-06-18T11:20:10.280Z,2.80
2017-06-18T11:22:42.717Z,2.87
2017-06-18T11:25:15.035Z,2.80
2017-06-18T11:27:45.782Z,2.67
2017-06-18T11:30:16.526Z,2.50
2017-06-18T11:32:47.470Z,2.63
2017-06-18T11:35:18.416Z,2.30
2017-06-18T11:37:48.266Z,2.83
2017-06-18T11:40:20.278Z,2.43
2017-06-18T11:42:54.305Z,3.07
2017-06-18T11:45:25.711Z,3.70
2017-06-18T11:47:56.557Z,3.10
2017-06-18T11:50:27.701Z,3.50
2017-06-18T11:52:58.891Z,3.67
2017-06-18T11:55:28.977Z,3.20
2017-06-18T11:57:59.861Z,3.23
2017-06-18T12:00:30.309Z,3.17
2017-06-18T12:03:03.931Z,3.60
2017-06-18T12:05:35.561Z,3.60
2017-06-18T12:08:06.164Z,3.03
2017-06-18T12:10:37.267Z,2.97
2017-06-18T12:13:09.127Z,2.90
2017-06-18T12:15:39.440Z,3.27
2017-06-18T12:18:12.058Z,3.30
2017-06-18T12:20:42.900Z,3.30
2017-06-18T12:23:13.508Z,3.27
2017-06-18T12:25:43.230Z,2.70
2017-06-18T12:28:20.603Z,2.90
2017-06-18T12:31:02.658Z,3.00
2017-06-18T12:33:46.202Z,3.40
2017-06-18T12:36:27.649Z,3.10
2017-06-18T12:39:06.496Z,3.67
2017-06-18T12:41:39.833Z,2.87
2017-06-18T12:44:09.654Z,3.20
2017-06-18T12:46:39.393Z,3.13
2017-06-18T12:49:09.127Z,3.10
2017-06-18T12:51:38.841Z,3.30
2017-06-18T12:54:11.688Z,3.30
2017-06-18T12:56:44.039Z,2.90
2017-06-18T12:59:16.443Z,3.43
2017-06-18T13:01:48.285Z,3.30
2017-06-18T13:04:20.393Z,3.27
2017-06-18T13:06:51.401Z,3.43
2017-06-18T13:09:22.166Z,3.03
2017-06-18T13:11:52.338Z,3.87
2017-06-18T13:14:22.601Z,3.30
2017-06-18T13:16:52.709Z,3.73
2017-06-18T13:19:23.695Z,3.63
2017-06-18T13:21:53.996Z,3.90
2017-06-18T13:24:27.382Z,3.70
2017-06-18T13:26:58.397Z,3.80
2017-06-18T13:29:28.856Z,3.47
2017-06-18T13:32:00.587Z,4.13
2017-06-18T13:34:30.693Z,4.10
2017-06-18T13:37:04.377Z,4.17
2017-06-18T13:39:37.555Z,3.90
2017-06-18T13:42:09.604Z,3.90
2017-06-18T13:44:40.644Z,4.10
2017-06-18T13:47:12.737Z,4.60
2017-06-18T13:49:44.644Z,4.50
2017-06-18T13:52:15.692Z,3.70
2017-06-18T13:54:46.389Z,4.37
2017-06-18T13:57:16.888Z,3.47
2017-06-18T13:59:48.729Z,3.37
2017-06-18T14:02:19.078Z,3.67
2017-06-18T14:04:49.607Z,3.50
2017-06-18T14:07:20.353Z,3.73
2017-06-18T14:09:50.620Z,3.80
2017-06-18T14:12:21.133Z,4.10
2017-06-18T14:14:52.420Z,4.70
2017-06-18T14:17:23.741Z,4.60
2017-06-18T14:19:54.037Z,3.60
2017-06-18T14:22:25.462Z,4.20
2017-06-18T14:24:55.871Z,4.57
2017-06-18T14:27:27.485Z,4.00
2017-06-18T14:29:57.578Z,3.83
2017-06-18T14:32:27.569Z,3.70
2017-06-18T14:34:59.359Z,4.30
2017-06-18T14:37:31.608Z,3.60
2017-06-18T14:40:05.063Z,3.60
2017-06-18T14:42:37.445Z,3.90
2017-06-18T14:45:12.309Z,4.00
2017-06-18T14:47:44.142Z,4.07
2017-06-18T14:50:16.204Z,3.57
2017-06-18T14:52:46.825Z,4.00
2017-06-18T14:55:18.523Z,3.90
2017-06-18T14:57:50.153Z,4.10
2017-06-18T15:00:20.774Z,3.93
2017-06-18T15:02:51.651Z,4.30
2017-06-18T15:05:25.338Z,3.50
2017-06-18T15:07:59.720Z,4.07
2017-06-18T15:10:32.922Z,3.60
2017-06-18T15:13:03.270Z,3.47
2017-06-18T15:15:33.664Z,3.67
2017-06-18T15:18:03.482Z,3.67
2017-06-18T15:20:36.533Z,4.40
2017-06-18T15:23:11.667Z,3.83
2017-06-18T15:25:44.034Z,4.30
2017-06-18T15:28:19.605Z,4.00
2017-06-18T15:30:56.293Z,3.60
2017-06-18T15:33:34.305Z,3.70
2017-06-18T15:36:09.299Z,4.27
2017-06-18T15:38:43.927Z,3.40
2017-06-18T15:41:18.908Z,3.83
2017-06-18T15:43:52.713Z,3.90
2017-06-18T15:46:26.243Z,3.80
2017-06-18T15:49:00.322Z,3.43
2017-06-18T15:51:44.440Z,3.47
2017-06-18T15:54:17.217Z,3.20
2017-06-18T15:56:51.242Z,3.40
2017-06-18T15:59:24.629Z,3.50
2017-06-18T16:01:58.572Z,3.37
2017-06-18T16:04:33.186Z,3.70
2017-06-18T16:07:07.397Z,3.50
2017-06-18T16:09:43.633Z,3.50
2017-06-18T16:12:20.709Z,3.37
2017-06-18T16:14:58.277Z,3.10
2017-06-18T16:17:32.775Z,3.33
2017-06-18T16:20:07.607Z,3.30
2017-06-18T16:22:42.169Z,3.37
2017-06-18T16:25:24.407Z,3.30
2017-06-18T16:27:55.601Z,3.50
2017-06-18T16:30:27.061Z,3.83
2017-06-18T16:32:58.718Z,3.93
2017-06-18T16:35:31.147Z,4.07
2017-06-18T16:38:01.316Z,4.43
2017-06-18T16:40:31.041Z,3.87
2017-06-18T16:43:00.788Z,3.27
2017-06-18T16:45:30.933Z,3.10
2017-06-18T16:48:00.725Z,3.40
2017-06-18T16:50:34.929Z,2.97
2017-06-18T16:53:08.696Z,2.83
2017-06-18T16:55:39.650Z,3.63
2017-06-18T16:58:10.097Z,3.53
2017-06-18T17:00:40.809Z,4.30
2017-06-18T17:03:11.567Z,2.80
2017-06-18T17:05:47.635Z,2.80
2017-06-18T17:08:18.646Z,2.60
2017-06-18T17:10:50.780Z,2.70
2017-06-18T17:13:23.392Z,2.90
2017-06-18T17:15:54.596Z,2.70
2017-06-18T17:18:25.873Z,2.80
2017-06-18T17:21:14.477Z,2.57
2017-06-18T17:23:58.862Z,2.73
2017-06-18T17:26:29.583Z,2.50
2017-06-18T17:29:01.081Z,2.90
2017-06-18T17:31:32.386Z,2.90
2017-06-18T17:34:03.271Z,3.23
2017-06-18T17:36:36.555Z,3.13
2017-06-18T17:39:06.296Z,2.87
2017-06-18T17:41:37.016Z,2.83
2017-06-18T17:44:06.774Z,3.07
2017-06-18T17:46:36.478Z,2.90
2017-06-18T17:49:06.211Z,2.50
2017-06-18T17:51:35.961Z,2.37
2017-06-18T17:54:05.675Z,2.90
2017-06-18T17:56:35.379Z,2.60
2017-06-18T17:59:06.470Z,2.40
2017-06-18T18:01:38.349Z,2.70
2017-06-18T18:04:11.268Z,2.80
2017-06-18T18:06:43.358Z,3.10
2017-06-18T18:09:15.503Z,2.43
2017-06-18T18:11:46.332Z,2.93
2017-06-18T18:14:16.103Z,2.47
2017-06-18T18:16:46.143Z,2.60
2017-06-18T18:19:18.393Z,2.60
2017-06-18T18:21:49.435Z,3.00
2017-06-18T18:24:21.333Z,2.40
2017-06-18T18:26:52.008Z,2.50
2017-06-18T18:29:24.240Z,3.00
2017-06-18T18:31:57.231Z,2.80
2017-06-18T18:34:30.405Z,3.00
2017-06-18T18:37:01.251Z,3.80
2017-06-18T18:39:31.405Z,3.73
2017-06-18T18:42:02.598Z,4.80
2017-06-18T18:44:34.062Z,4.50
2017-06-18T18:47:04.718Z,4.63
2017-06-18T18:49:34.958Z,4.10
2017-06-18T18:52:05.393Z,4.20
2017-06-18T18:54:36.824Z,4.20
2017-06-18T18:57:07.557Z,3.97
2017-06-18T18:59:39.483Z,3.67
2017-06-18T19:02:12.707Z,3.90
2017-06-18T19:04:43.312Z,3.90
2017-06-18T19:07:14.634Z,3.50
2017-06-18T19:09:45.250Z,3.50
2017-06-18T19:12:17.287Z,3.40
2017-06-18T19:14:49.688Z,3.07
2017-06-18T19:17:22.839Z,4.00
2017-06-18T19:19:55.761Z,3.40
2017-06-18T19:22:27.693Z,3.53
2017-06-18T19:25:00.220Z,3.63
2017-06-18T19:27:32.027Z,4.03
2017-06-18T19:30:02.406Z,3.90
2017-06-18T19:32:34.384Z,3.57
2017-06-18T19:35:07.029Z,3.60
2017-06-18T19:37:40.756Z,3.23
2017-06-18T19:40:13.389Z,3.73
2017-06-18T19:42:44.744Z,3.00
2017-06-18T19:45:17.231Z,3.20
2017-06-18T19:47:50.316Z,3.60
2017-06-18T19:50:22.477Z,3.40
2017-06-18T19:52:54.118Z,3.50
2017-06-18T19:55:26.230Z,3.73
2017-06-18T19:57:58.728Z,4.20
2017-06-18T20:00:32.570Z,4.23
2017-06-18T20:03:04.136Z,3.90
2017-06-18T20:05:36.622Z,3.47
2017-06-18T20:08:10.303Z,3.07
2017-06-18T20:10:44.028Z,3.70
2017-06-18T20:13:17.425Z,3.43
2017-06-18T20:15:49.988Z,4.10
2017-06-18T20:18:21.003Z,2.90
2017-06-18T20:20:52.875Z,3.53
2017-06-18T20:23:24.811Z,3.30
2017-06-18T20:25:56.171Z,3.67
2017-06-18T20:28:25.898Z,3.50
2017-06-18T20:30:55.643Z,3.47
2017-06-18T20:33:25.635Z,3.83
2017-06-18T20:35:55.392Z,3.60
2017-06-18T20:38:25.118Z,4.23
2017-06-18T20:40:54.811Z,3.80
2017-06-18T20:43:24.589Z,4.50
2017-06-18T20:45:54.301Z,4.00
2017-06-18T20:48:23.992Z,3.83
2017-06-18T20:50:53.727Z,4.87
2017-06-18T20:53:23.447Z,4.83
2017-06-18T20:55:53.178Z,4.10
2017-06-18T20:58:22.882Z,4.50
2017-06-18T21:00:52.635Z,4.10
2017-06-18T21:03:22.359Z,4.47
2017-06-18T21:05:59.784Z,4.40
2017-06-18T21:08:29.606Z,5.60
2017-06-18T21:10:59.347Z,5.47
2017-06-18T21:13:29.038Z,4.77
2017-06-18T21:15:58.764Z,5.03
2017-06-18T21:18:28.486Z,5.17
2017-06-18T21:20:58.198Z,5.13
2017-06-18T21:23:27.943Z,5.70
2017-06-18T21:25:57.684Z,5.30
2017-06-18T21:28:27.482Z,6.37
2017-06-18T21:30:57.216Z,5.67
2017-06-18T21:33:26.971Z,5.87
2017-06-18T21:35:56.666Z,5.70
2017-06-18T21:38:26.386Z,6.17
2017-06-18T21:40:56.219Z,5.27
2017-06-18T21:43:25.944Z,5.20
2017-06-18T21:45:55.760Z,5.70
2017-06-18T21:48:25.504Z,5.50
2017-06-18T21:50:55.282Z,5.57
2017-06-18T21:53:24.983Z,4.73
2017-06-18T21:55:54.727Z,5.10
2017-06-18T21:58:24.466Z,5.77
2017-06-18T22:00:54.182Z,5.80
2017-06-18T22:03:23.935Z,5.90
2017-06-18T22:05:53.658Z,6.10
2017-06-18T22:08:26.820Z,6.00
2017-06-18T22:10:57.439Z,5.93
2017-06-18T22:13:27.234Z,6.10
2017-06-18T22:15:56.974Z,5.80
2017-06-18T22:18:26.682Z,5.90
2017-06-18T22:20:56.437Z,6.07
2017-06-18T22:23:26.182Z,6.07
2017-06-18T22:25:55.959Z,6.30
2017-06-18T22:28:25.725Z,6.20
2017-06-18T22:30:55.474Z,5.40
2017-06-18T22:33:25.189Z,6.23
2017-06-18T22:35:54.911Z,6.13
2017-06-18T22:38:24.654Z,5.57
2017-06-18T22:40:54.370Z,5.90
2017-06-18T22:43:24.090Z,6.13
2017-06-18T22:45:53.808Z,6.80
2017-06-18T22:48:23.586Z,6.20
2017-06-18T22:50:53.321Z,6.60
2017-06-18T22:53:23.078Z,6.97
2017-06-18T22:55:53.607Z,6.10
2017-06-18T22:58:23.358Z,6.20
2017-06-18T23:00:53.111Z,6.63
2017-06-18T23:03:22.854Z,6.90
2017-06-18T23:05:52.606Z,7.07
2017-06-18T23:08:22.319Z,8.40
2017-06-18T23:10:53.347Z,6.80
2017-06-18T23:13:23.067Z,6.80
2017-06-18T23:15:52.842Z,6.40
2017-06-18T23:18:22.605Z,6.90
2017-06-18T23:20:52.329Z,6.83
2017-06-18T23:23:22.067Z,8.17
2017-06-18T23:25:51.810Z,7.17
2017-06-18T23:28:21.590Z,7.77
2017-06-18T23:30:51.311Z,7.37
2017-06-18T23:33:21.067Z,6.80
2017-06-18T23:35:50.783Z,6.80
2017-06-18T23:38:20.494Z,6.63
2017-06-18T23:40:50.233Z,6.40
2017-06-18T23:43:19.936Z,6.57
2017-06-18T23:45:49.666Z,6.47
2017-06-18T23:48:19.385Z,6.90
2017-06-18T23:50:49.135Z,6.47
2017-06-18T23:53:18.870Z,6.47
2017-06-18T23:55:48.583Z,6.50
2017-06-18T23:58:18.374Z,5.40
